Main page
METAR-TAF:

METAR-TAF

Airports :

Diori Hamani International Airport

Niamey, Niger

latitude: 13-29N, longitude: 002-10E, elevation: 223 m

Current weather observation

The report was made 13 hours and 49 minutes ago, at 14:00 UTC
Wind 8 kt from the West/Southwest
Temperature 34°C
Humidity 34%
Pressure 1010 hPa
Visibility 10 km or more
no clouds below 1500 m and no cumulonimbus

METAR: DRRN 151400Z 25008KT CAVOK 34/16 Q1010 NOSIG

Time: 04:49 (03:49 UTC)

Forecast

The report was made 16 hours and 49 minutes ago, at 11:00 UTC
Forecast valid from 15 at 12 UTC to 16 at 18 UTC
Wind 10 kt from the West/Southwest
Visibility 10 km or more
Few clouds at a height of 3000 ft
Probability 30% :
Temporary
from 15 at 15 UTC to 15 at 21 UTC
Visibility: 4000 m
Few clouds at a height of 4000 ft, Cumulonimbus.
thunderstorm, rain showers,

TAF: DRRN 151100Z 1512/1618 24010KT 9999 FEW030 PROB30 TEMPO 1515/1521 4000 TS SHRA FEW040CB

Weather observations and forecasts of more than 4000 airports (METAR and TAF reports).

The available stations are represented by yellow and red dots on the map.

Hover mouse over dot to see the name of the station.

Then click to see weather observations and forecasts.

To change the map : click on the green buttons with a black cross to zoom in, on the green button with a dash to zoom out, or on the green arrows for adjacent maps.


METAR-TAF: